Wales, AK

6:33 PM AKDT on August 30, 2015 (GMT -0800)
Tin City LRRS | | Change Station
CLOSE
Current Station
Airport
Location: Tin City,
Elevation: 272 ft
Nearby Weather Stations

Elev 272 ft 65.56 °N, 167.92 °W | Updated 17 minutes ago

Mostly Cloudy
Mostly Cloudy
41 °F
Feels Like 31 °F
N
25
Wind Variable Wind from NNE

Today
High -- | Low -- °F
--% Chance of Precip.
Yesterday
High -- | Low -- °F
Precip. -- in
7:42 AM 10:39 PM
Full, 97% visible
Pressure 29.78 in
Visibility 10.0 miles
Clouds Mostly Cloudy 1300 ft
Windchill 31 °F
Dew Point 37 °F
Humidity 87%
Rainfall 0.07 in
Snow Depth Not available.
UV 1 out of 12
Pollen Not available.
Air Quality Not available.
Flu Activity Not available.
SPECI PATC 310216Z AUTO 02022KT 10SM BKN013 05/03 A2977 RMK AO2 SLP083
Pressure 29.78 in
Visibility 10.0 miles
Clouds Mostly Cloudy 1300 ft
Windchill 31 °F
Dew Point 37 °F
Humidity 87%
Rainfall 0.07 in
Snow Depth Not available.
UV 1 out of 12
Pollen Not available.
Air Quality Not available.
Flu Activity Not available.
SPECI PATC 310216Z AUTO 02022KT 10SM BKN013 05/03 A2977 RMK AO2 SLP083

10-Day Weather Forecast

×

Almanac

Astronomy

Aug. 30, 2015 Rise Set
Actual Time
Civil Twilight
Nautical Twilight
Astronomical Twilight
Moon
Length of Visible Light
Length of Day
Tomorrow will be .
, % of the Moon is Illuminated

Today's Extremes

State Highs State Lows

Community

WunderPhotos

Upload Photos

1,851,164 photos uploaded!

WunderBlogs® & News

Nearby

Air Quality

  Air Quality AQ Index Pollutant
Not available.

Snow Depth

Station Depth Elevation

Earthquake Activity

City Distance Mag. Time & Date
Minimum magnitude displayed is 2.5.

Coastal Water Temperatures

Place Temperature

Stations

Nearby Weather Stations

Station Location Temp. Windchill Dew Point Humidity Wind Precip. Elev Updated Type